sensor_id;sensor_type;location;lat;lon;timestamp;P1;durP1;ratioP1;P2;durP2;ratioP2
51296;SDS011;37380;45.186;9.792;2023-12-28T00:02:19;58.80;;;44.90;;
51296;SDS011;37380;45.186;9.792;2023-12-28T00:04:46;58.30;;;42.17;;
51296;SDS011;37380;45.186;9.792;2023-12-28T00:07:13;59.63;;;43.97;;
51296;SDS011;37380;45.186;9.792;2023-12-28T00:09:40;62.00;;;45.05;;
51296;SDS011;37380;45.186;9.792;2023-12-28T00:12:07;55.85;;;43.42;;
51296;SDS011;37380;45.186;9.792;2023-12-28T00:14:34;56.15;;;42.55;;
51296;SDS011;37380;45.186;9.792;2023-12-28T00:17:01;65.85;;;47.95;;
51296;SDS011;37380;45.186;9.792;2023-12-28T00:19:28;61.95;;;45.25;;
51296;SDS011;37380;45.186;9.792;2023-12-28T00:21:55;58.00;;;44.38;;
51296;SDS011;37380;45.186;9.792;2023-12-28T00:24:22;62.38;;;47.67;;
51296;SDS011;37380;45.186;9.792;2023-12-28T00:26:49;56.72;;;44.10;;
51296;SDS011;37380;45.186;9.792;2023-12-28T00:29:16;53.22;;;43.15;;
51296;SDS011;37380;45.186;9.792;2023-12-28T00:31:43;59.50;;;43.55;;
51296;SDS011;37380;45.186;9.792;2023-12-28T00:34:10;59.80;;;45.72;;
51296;SDS011;37380;45.186;9.792;2023-12-28T00:36:38;60.90;;;44.10;;
51296;SDS011;37380;45.186;9.792;2023-12-28T00:39:05;60.33;;;46.20;;
51296;SDS011;37380;45.186;9.792;2023-12-28T00:41:32;57.10;;;45.58;;
51296;SDS011;37380;45.186;9.792;2023-12-28T00:43:59;60.45;;;45.15;;
51296;SDS011;37380;45.186;9.792;2023-12-28T00:46:28;58.92;;;43.72;;
51296;SDS011;37380;45.186;9.792;2023-12-28T00:48:55;60.42;;;44.38;;
51296;SDS011;37380;45.186;9.792;2023-12-28T00:51:22;56.90;;;46.17;;
51296;SDS011;37380;45.186;9.792;2023-12-28T00:53:49;57.63;;;45.75;;
51296;SDS011;37380;45.186;9.792;2023-12-28T00:56:17;60.17;;;41.25;;
51296;SDS011;37380;45.186;9.792;2023-12-28T00:58:44;60.25;;;46.92;;
51296;SDS011;37380;45.186;9.792;2023-12-28T01:01:11;58.00;;;43.60;;
51296;SDS011;37380;45.186;9.792;2023-12-28T01:03:39;60.15;;;43.72;;
51296;SDS011;37380;45.186;9.792;2023-12-28T01:06:06;60.15;;;44.85;;
51296;SDS011;37380;45.186;9.792;2023-12-28T01:08:35;65.68;;;42.33;;
51296;SDS011;37380;45.186;9.792;2023-12-28T01:11:02;56.72;;;45.80;;
51296;SDS011;37380;45.186;9.792;2023-12-28T01:13:29;56.92;;;44.85;;
51296;SDS011;37380;45.186;9.792;2023-12-28T01:15:58;58.53;;;46.63;;
51296;SDS011;37380;45.186;9.792;2023-12-28T01:18:25;52.15;;;41.55;;
51296;SDS011;37380;45.186;9.792;2023-12-28T01:20:53;54.83;;;43.58;;
51296;SDS011;37380;45.186;9.792;2023-12-28T01:23:20;58.50;;;43.05;;
51296;SDS011;37380;45.186;9.792;2023-12-28T01:25:47;56.97;;;45.75;;
51296;SDS011;37380;45.186;9.792;2023-12-28T01:28:14;54.80;;;41.90;;
51296;SDS011;37380;45.186;9.792;2023-12-28T01:30:41;51.78;;;41.45;;
51296;SDS011;37380;45.186;9.792;2023-12-28T01:33:10;51.30;;;42.78;;
51296;SDS011;37380;45.186;9.792;2023-12-28T01:35:38;54.75;;;42.47;;
51296;SDS011;37380;45.186;9.792;2023-12-28T01:38:07;54.25;;;45.67;;
51296;SDS011;37380;45.186;9.792;2023-12-28T01:40:35;49.75;;;43.88;;
51296;SDS011;37380;45.186;9.792;2023-12-28T01:43:02;49.28;;;42.35;;
51296;SDS011;37380;45.186;9.792;2023-12-28T01:45:29;62.22;;;45.67;;
51296;SDS011;37380;45.186;9.792;2023-12-28T01:47:58;52.50;;;45.05;;
51296;SDS011;37380;45.186;9.792;2023-12-28T01:50:27;64.82;;;45.78;;
51296;SDS011;37380;45.186;9.792;2023-12-28T01:52:55;47.53;;;40.13;;
51296;SDS011;37380;45.186;9.792;2023-12-28T01:55:25;60.95;;;45.40;;
51296;SDS011;37380;45.186;9.792;2023-12-28T01:57:53;60.35;;;46.40;;
51296;SDS011;37380;45.186;9.792;2023-12-28T02:00:22;59.92;;;43.60;;
51296;SDS011;37380;45.186;9.792;2023-12-28T02:02:50;50.45;;;43.13;;
51296;SDS011;37380;45.186;9.792;2023-12-28T02:05:18;52.40;;;42.00;;
51296;SDS011;37380;45.186;9.792;2023-12-28T02:07:46;55.45;;;42.33;;
51296;SDS011;37380;45.186;9.792;2023-12-28T02:10:13;55.78;;;44.50;;
51296;SDS011;37380;45.186;9.792;2023-12-28T02:12:40;59.08;;;43.78;;
51296;SDS011;37380;45.186;9.792;2023-12-28T02:15:08;56.35;;;43.15;;
51296;SDS011;37380;45.186;9.792;2023-12-28T02:20:29;56.38;;;44.95;;
51296;SDS011;37380;45.186;9.792;2023-12-28T02:22:58;58.03;;;42.17;;
51296;SDS011;37380;45.186;9.792;2023-12-28T02:25:25;60.92;;;42.67;;
51296;SDS011;37380;45.186;9.792;2023-12-28T02:27:52;52.97;;;42.28;;
51296;SDS011;37380;45.186;9.792;2023-12-28T02:30:23;56.03;;;45.35;;
51296;SDS011;37380;45.186;9.792;2023-12-28T02:35:44;52.55;;;40.63;;
51296;SDS011;37380;45.186;9.792;2023-12-28T02:38:18;42.70;;;37.28;;
51296;SDS011;37380;45.186;9.792;2023-12-28T02:40:48;45.95;;;39.28;;
51296;SDS011;37380;45.186;9.792;2023-12-28T02:43:15;63.13;;;46.97;;
51296;SDS011;37380;45.186;9.792;2023-12-28T02:45:43;54.40;;;42.88;;
51296;SDS011;37380;45.186;9.792;2023-12-28T02:48:10;55.15;;;44.88;;
51296;SDS011;37380;45.186;9.792;2023-12-28T02:50:38;47.67;;;41.15;;
51296;SDS011;37380;45.186;9.792;2023-12-28T02:53:05;60.88;;;43.90;;
51296;SDS011;37380;45.186;9.792;2023-12-28T02:55:32;62.92;;;44.60;;
51296;SDS011;37380;45.186;9.792;2023-12-28T02:57:59;54.03;;;42.38;;
51296;SDS011;37380;45.186;9.792;2023-12-28T03:00:28;53.88;;;41.45;;
51296;SDS011;37380;45.186;9.792;2023-12-28T03:02:55;54.95;;;44.17;;
51296;SDS011;37380;45.186;9.792;2023-12-28T03:05:22;51.67;;;45.17;;
51296;SDS011;37380;45.186;9.792;2023-12-28T03:07:49;57.17;;;44.08;;
51296;SDS011;37380;45.186;9.792;2023-12-28T03:10:17;48.58;;;42.35;;
51296;SDS011;37380;45.186;9.792;2023-12-28T03:12:45;45.55;;;38.33;;
51296;SDS011;37380;45.186;9.792;2023-12-28T03:15:12;60.08;;;43.80;;
51296;SDS011;37380;45.186;9.792;2023-12-28T03:17:39;50.42;;;44.60;;
51296;SDS011;37380;45.186;9.792;2023-12-28T03:20:07;55.38;;;44.53;;
51296;SDS011;37380;45.186;9.792;2023-12-28T03:22:36;59.75;;;43.92;;
51296;SDS011;37380;45.186;9.792;2023-12-28T03:25:04;51.67;;;42.17;;
51296;SDS011;37380;45.186;9.792;2023-12-28T03:27:31;56.67;;;44.72;;
51296;SDS011;37380;45.186;9.792;2023-12-28T03:29:59;54.05;;;44.95;;
51296;SDS011;37380;45.186;9.792;2023-12-28T03:32:26;52.35;;;44.58;;
51296;SDS011;37380;45.186;9.792;2023-12-28T03:34:53;51.95;;;44.22;;
51296;SDS011;37380;45.186;9.792;2023-12-28T03:37:20;51.25;;;40.35;;
51296;SDS011;37380;45.186;9.792;2023-12-28T03:39:47;52.45;;;43.72;;
51296;SDS011;37380;45.186;9.792;2023-12-28T03:42:14;53.60;;;44.05;;
51296;SDS011;37380;45.186;9.792;2023-12-28T03:44:41;63.40;;;43.67;;
51296;SDS011;37380;45.186;9.792;2023-12-28T03:47:08;53.55;;;41.75;;
51296;SDS011;37380;45.186;9.792;2023-12-28T03:49:35;53.70;;;45.17;;
51296;SDS011;37380;45.186;9.792;2023-12-28T03:52:03;61.70;;;42.92;;
51296;SDS011;37380;45.186;9.792;2023-12-28T03:54:30;51.97;;;42.85;;
51296;SDS011;37380;45.186;9.792;2023-12-28T03:56:57;59.67;;;42.35;;
51296;SDS011;37380;45.186;9.792;2023-12-28T03:59:24;52.47;;;42.47;;
51296;SDS011;37380;45.186;9.792;2023-12-28T04:01:52;54.88;;;43.47;;
51296;SDS011;37380;45.186;9.792;2023-12-28T04:04:20;56.45;;;43.03;;
51296;SDS011;37380;45.186;9.792;2023-12-28T04:06:48;52.50;;;43.03;;
51296;SDS011;37380;45.186;9.792;2023-12-28T04:09:15;55.15;;;41.70;;
51296;SDS011;37380;45.186;9.792;2023-12-28T04:11:45;52.83;;;41.70;;
51296;SDS011;37380;45.186;9.792;2023-12-28T04:14:13;53.30;;;46.80;;
51296;SDS011;37380;45.186;9.792;2023-12-28T04:16:40;71.07;;;46.83;;
51296;SDS011;37380;45.186;9.792;2023-12-28T04:19:07;54.55;;;44.13;;
51296;SDS011;37380;45.186;9.792;2023-12-28T04:21:34;55.22;;;44.50;;
51296;SDS011;37380;45.186;9.792;2023-12-28T04:24:03;52.90;;;42.88;;
51296;SDS011;37380;45.186;9.792;2023-12-28T04:26:30;57.38;;;45.33;;
51296;SDS011;37380;45.186;9.792;2023-12-28T04:28:57;56.42;;;44.88;;
51296;SDS011;37380;45.186;9.792;2023-12-28T04:31:24;53.63;;;44.95;;
51296;SDS011;37380;45.186;9.792;2023-12-28T04:33:52;59.70;;;44.03;;
51296;SDS011;37380;45.186;9.792;2023-12-28T04:36:19;66.15;;;49.58;;
51296;SDS011;37380;45.186;9.792;2023-12-28T04:38:47;54.33;;;43.33;;
51296;SDS011;37380;45.186;9.792;2023-12-28T04:41:14;58.90;;;45.03;;
51296;SDS011;37380;45.186;9.792;2023-12-28T04:43:41;54.28;;;47.17;;
51296;SDS011;37380;45.186;9.792;2023-12-28T04:46:08;62.42;;;51.15;;
51296;SDS011;37380;45.186;9.792;2023-12-28T04:48:35;63.58;;;46.30;;
51296;SDS011;37380;45.186;9.792;2023-12-28T04:51:04;57.85;;;45.00;;
51296;SDS011;37380;45.186;9.792;2023-12-28T04:53:31;64.72;;;47.25;;
51296;SDS011;37380;45.186;9.792;2023-12-28T04:55:59;63.10;;;48.63;;
51296;SDS011;37380;45.186;9.792;2023-12-28T04:58:26;54.33;;;45.75;;
51296;SDS011;37380;45.186;9.792;2023-12-28T05:00:53;59.10;;;46.67;;
51296;SDS011;37380;45.186;9.792;2023-12-28T05:03:20;62.05;;;48.45;;
51296;SDS011;37380;45.186;9.792;2023-12-28T05:05:47;68.32;;;49.88;;
51296;SDS011;37380;45.186;9.792;2023-12-28T05:08:15;64.57;;;48.35;;
51296;SDS011;37380;45.186;9.792;2023-12-28T05:10:42;54.17;;;46.13;;
51296;SDS011;37380;45.186;9.792;2023-12-28T05:13:10;62.00;;;47.78;;
51296;SDS011;37380;45.186;9.792;2023-12-28T05:15:38;60.97;;;47.88;;
51296;SDS011;37380;45.186;9.792;2023-12-28T05:18:05;64.53;;;49.28;;
51296;SDS011;37380;45.186;9.792;2023-12-28T05:20:34;53.28;;;43.78;;
51296;SDS011;37380;45.186;9.792;2023-12-28T05:23:01;60.35;;;47.28;;
51296;SDS011;37380;45.186;9.792;2023-12-28T05:25:28;63.70;;;50.00;;
51296;SDS011;37380;45.186;9.792;2023-12-28T05:27:55;64.65;;;50.45;;
51296;SDS011;37380;45.186;9.792;2023-12-28T05:30:22;59.95;;;45.28;;
51296;SDS011;37380;45.186;9.792;2023-12-28T05:32:49;71.40;;;53.08;;
51296;SDS011;37380;45.186;9.792;2023-12-28T05:35:17;60.63;;;49.05;;
51296;SDS011;37380;45.186;9.792;2023-12-28T05:37:44;73.95;;;50.58;;
51296;SDS011;37380;45.186;9.792;2023-12-28T05:40:11;65.05;;;50.28;;
51296;SDS011;37380;45.186;9.792;2023-12-28T05:42:38;68.13;;;52.30;;
51296;SDS011;37380;45.186;9.792;2023-12-28T05:45:05;59.35;;;52.63;;
51296;SDS011;37380;45.186;9.792;2023-12-28T05:47:32;66.32;;;52.17;;
51296;SDS011;37380;45.186;9.792;2023-12-28T05:50:00;59.95;;;47.78;;
51296;SDS011;37380;45.186;9.792;2023-12-28T05:52:29;68.57;;;52.55;;
51296;SDS011;37380;45.186;9.792;2023-12-28T05:54:57;72.07;;;53.78;;
51296;SDS011;37380;45.186;9.792;2023-12-28T05:57:24;61.00;;;48.80;;
51296;SDS011;37380;45.186;9.792;2023-12-28T05:59:53;56.58;;;47.40;;
51296;SDS011;37380;45.186;9.792;2023-12-28T06:02:20;54.08;;;47.78;;
51296;SDS011;37380;45.186;9.792;2023-12-28T06:04:47;67.80;;;51.00;;
51296;SDS011;37380;45.186;9.792;2023-12-28T06:07:14;62.17;;;49.75;;
51296;SDS011;37380;45.186;9.792;2023-12-28T06:09:42;63.58;;;49.45;;
51296;SDS011;37380;45.186;9.792;2023-12-28T06:12:09;63.55;;;49.33;;
51296;SDS011;37380;45.186;9.792;2023-12-28T06:14:36;70.88;;;51.92;;
51296;SDS011;37380;45.186;9.792;2023-12-28T06:17:04;74.10;;;49.42;;
51296;SDS011;37380;45.186;9.792;2023-12-28T06:19:30;69.38;;;55.05;;
51296;SDS011;37380;45.186;9.792;2023-12-28T06:21:58;74.72;;;53.92;;
51296;SDS011;37380;45.186;9.792;2023-12-28T06:24:25;58.25;;;49.80;;
51296;SDS011;37380;45.186;9.792;2023-12-28T06:26:52;61.55;;;49.90;;
51296;SDS011;37380;45.186;9.792;2023-12-28T06:29:19;65.22;;;54.50;;
51296;SDS011;37380;45.186;9.792;2023-12-28T06:31:46;69.95;;;52.40;;
51296;SDS011;37380;45.186;9.792;2023-12-28T06:34:13;53.72;;;46.78;;
51296;SDS011;37380;45.186;9.792;2023-12-28T06:36:41;59.30;;;49.05;;
51296;SDS011;37380;45.186;9.792;2023-12-28T06:39:10;65.10;;;49.75;;
51296;SDS011;37380;45.186;9.792;2023-12-28T06:41:37;75.85;;;52.08;;
51296;SDS011;37380;45.186;9.792;2023-12-28T06:44:04;63.40;;;51.97;;
51296;SDS011;37380;45.186;9.792;2023-12-28T06:46:31;64.18;;;54.35;;
51296;SDS011;37380;45.186;9.792;2023-12-28T06:48:58;75.47;;;56.92;;
51296;SDS011;37380;45.186;9.792;2023-12-28T06:51:26;64.15;;;53.75;;
51296;SDS011;37380;45.186;9.792;2023-12-28T06:53:53;69.80;;;52.10;;
51296;SDS011;37380;45.186;9.792;2023-12-28T06:56:20;69.18;;;52.80;;
51296;SDS011;37380;45.186;9.792;2023-12-28T06:58:47;68.40;;;54.97;;
51296;SDS011;37380;45.186;9.792;2023-12-28T07:01:14;66.75;;;51.70;;
51296;SDS011;37380;45.186;9.792;2023-12-28T07:03:41;74.15;;;55.70;;
51296;SDS011;37380;45.186;9.792;2023-12-28T07:06:09;65.20;;;52.28;;
51296;SDS011;37380;45.186;9.792;2023-12-28T07:08:36;64.95;;;50.53;;
51296;SDS011;37380;45.186;9.792;2023-12-28T07:11:03;77.57;;;52.75;;
51296;SDS011;37380;45.186;9.792;2023-12-28T07:13:31;70.05;;;51.58;;
51296;SDS011;37380;45.186;9.792;2023-12-28T07:15:59;63.20;;;51.83;;
51296;SDS011;37380;45.186;9.792;2023-12-28T07:18:27;58.17;;;49.88;;
51296;SDS011;37380;45.186;9.792;2023-12-28T07:20:55;67.22;;;49.90;;
51296;SDS011;37380;45.186;9.792;2023-12-28T07:23:23;61.17;;;51.60;;
51296;SDS011;37380;45.186;9.792;2023-12-28T07:25:50;70.82;;;50.50;;
51296;SDS011;37380;45.186;9.792;2023-12-28T07:28:17;72.75;;;55.35;;
51296;SDS011;37380;45.186;9.792;2023-12-28T07:30:44;66.32;;;56.38;;
51296;SDS011;37380;45.186;9.792;2023-12-28T07:33:12;64.20;;;50.20;;
51296;SDS011;37380;45.186;9.792;2023-12-28T07:35:41;69.57;;;50.80;;
51296;SDS011;37380;45.186;9.792;2023-12-28T07:38:07;67.15;;;53.95;;
51296;SDS011;37380;45.186;9.792;2023-12-28T07:40:34;75.32;;;55.42;;
51296;SDS011;37380;45.186;9.792;2023-12-28T07:43:01;73.75;;;54.35;;
51296;SDS011;37380;45.186;9.792;2023-12-28T07:45:29;62.15;;;53.05;;
51296;SDS011;37380;45.186;9.792;2023-12-28T07:47:56;67.72;;;52.28;;
51296;SDS011;37380;45.186;9.792;2023-12-28T07:50:24;70.68;;;53.60;;
51296;SDS011;37380;45.186;9.792;2023-12-28T07:52:51;69.47;;;55.28;;
51296;SDS011;37380;45.186;9.792;2023-12-28T07:55:18;74.35;;;55.72;;
51296;SDS011;37380;45.186;9.792;2023-12-28T07:57:46;76.05;;;51.80;;
51296;SDS011;37380;45.186;9.792;2023-12-28T08:00:13;65.78;;;55.10;;
51296;SDS011;37380;45.186;9.792;2023-12-28T08:02:41;70.30;;;52.88;;
51296;SDS011;37380;45.186;9.792;2023-12-28T08:05:08;71.65;;;52.13;;
51296;SDS011;37380;45.186;9.792;2023-12-28T08:07:35;72.78;;;54.28;;
51296;SDS011;37380;45.186;9.792;2023-12-28T08:10:02;63.20;;;52.45;;
51296;SDS011;37380;45.186;9.792;2023-12-28T08:12:30;73.30;;;56.30;;
51296;SDS011;37380;45.186;9.792;2023-12-28T08:14:58;67.78;;;51.05;;
51296;SDS011;37380;45.186;9.792;2023-12-28T08:17:27;61.15;;;52.35;;
51296;SDS011;37380;45.186;9.792;2023-12-28T08:19:54;71.78;;;51.97;;
51296;SDS011;37380;45.186;9.792;2023-12-28T08:22:22;68.30;;;51.38;;
51296;SDS011;37380;45.186;9.792;2023-12-28T08:24:49;69.78;;;52.60;;
51296;SDS011;37380;45.186;9.792;2023-12-28T08:27:16;70.32;;;50.05;;
51296;SDS011;37380;45.186;9.792;2023-12-28T08:29:43;63.40;;;50.85;;
51296;SDS011;37380;45.186;9.792;2023-12-28T08:32:10;83.70;;;62.30;;
51296;SDS011;37380;45.186;9.792;2023-12-28T08:34:38;69.82;;;57.30;;
51296;SDS011;37380;45.186;9.792;2023-12-28T08:37:06;78.30;;;64.70;;
51296;SDS011;37380;45.186;9.792;2023-12-28T08:39:35;74.35;;;60.55;;
51296;SDS011;37380;45.186;9.792;2023-12-28T08:42:02;77.53;;;65.05;;
51296;SDS011;37380;45.186;9.792;2023-12-28T08:44:29;80.80;;;59.80;;
51296;SDS011;37380;45.186;9.792;2023-12-28T08:46:56;77.82;;;62.67;;
51296;SDS011;37380;45.186;9.792;2023-12-28T08:49:23;86.28;;;59.70;;
51296;SDS011;37380;45.186;9.792;2023-12-28T08:51:51;95.60;;;62.88;;
51296;SDS011;37380;45.186;9.792;2023-12-28T08:54:18;89.65;;;63.60;;
51296;SDS011;37380;45.186;9.792;2023-12-28T08:56:45;93.13;;;67.47;;
51296;SDS011;37380;45.186;9.792;2023-12-28T08:59:18;76.15;;;64.47;;
51296;SDS011;37380;45.186;9.792;2023-12-28T09:01:45;82.65;;;65.90;;
51296;SDS011;37380;45.186;9.792;2023-12-28T09:04:12;73.32;;;61.90;;
51296;SDS011;37380;45.186;9.792;2023-12-28T09:06:40;83.63;;;61.40;;
51296;SDS011;37380;45.186;9.792;2023-12-28T09:09:08;67.50;;;55.42;;
51296;SDS011;37380;45.186;9.792;2023-12-28T09:11:35;73.75;;;59.00;;
51296;SDS011;37380;45.186;9.792;2023-12-28T09:14:02;68.10;;;55.78;;
51296;SDS011;37380;45.186;9.792;2023-12-28T09:16:29;68.70;;;54.90;;
51296;SDS011;37380;45.186;9.792;2023-12-28T09:18:56;70.25;;;57.42;;
51296;SDS011;37380;45.186;9.792;2023-12-28T09:21:24;78.65;;;55.15;;
51296;SDS011;37380;45.186;9.792;2023-12-28T09:23:53;64.43;;;52.45;;
51296;SDS011;37380;45.186;9.792;2023-12-28T09:26:20;69.97;;;54.50;;
51296;SDS011;37380;45.186;9.792;2023-12-28T09:28:47;67.28;;;53.15;;
51296;SDS011;37380;45.186;9.792;2023-12-28T09:31:14;81.03;;;58.05;;
51296;SDS011;37380;45.186;9.792;2023-12-28T09:33:42;79.40;;;63.17;;
51296;SDS011;37380;45.186;9.792;2023-12-28T09:36:10;72.60;;;60.63;;
51296;SDS011;37380;45.186;9.792;2023-12-28T09:38:39;73.70;;;59.55;;
51296;SDS011;37380;45.186;9.792;2023-12-28T09:41:11;72.93;;;55.95;;
51296;SDS011;37380;45.186;9.792;2023-12-28T09:43:45;66.55;;;54.53;;
51296;SDS011;37380;45.186;9.792;2023-12-28T09:46:15;70.05;;;56.83;;
51296;SDS011;37380;45.186;9.792;2023-12-28T09:48:42;75.85;;;56.22;;
51296;SDS011;37380;45.186;9.792;2023-12-28T09:51:11;75.68;;;54.78;;
51296;SDS011;37380;45.186;9.792;2023-12-28T09:53:41;74.90;;;55.72;;
51296;SDS011;37380;45.186;9.792;2023-12-28T09:56:10;72.25;;;57.20;;
51296;SDS011;37380;45.186;9.792;2023-12-28T09:58:40;75.38;;;59.60;;
51296;SDS011;37380;45.186;9.792;2023-12-28T10:01:08;75.10;;;56.90;;
51296;SDS011;37380;45.186;9.792;2023-12-28T10:03:36;79.60;;;59.80;;
51296;SDS011;37380;45.186;9.792;2023-12-28T10:06:04;76.32;;;61.55;;
51296;SDS011;37380;45.186;9.792;2023-12-28T10:08:31;80.18;;;59.60;;
51296;SDS011;37380;45.186;9.792;2023-12-28T10:10:58;79.22;;;58.17;;
51296;SDS011;37380;45.186;9.792;2023-12-28T10:13:27;75.95;;;59.30;;
51296;SDS011;37380;45.186;9.792;2023-12-28T10:15:57;82.85;;;59.45;;
51296;SDS011;37380;45.186;9.792;2023-12-28T10:18:25;85.70;;;64.70;;
51296;SDS011;37380;45.186;9.792;2023-12-28T10:20:53;72.50;;;61.17;;
51296;SDS011;37380;45.186;9.792;2023-12-28T10:23:21;74.93;;;60.50;;
51296;SDS011;37380;45.186;9.792;2023-12-28T10:25:48;89.90;;;64.93;;
51296;SDS011;37380;45.186;9.792;2023-12-28T10:28:19;89.88;;;66.32;;
51296;SDS011;37380;45.186;9.792;2023-12-28T10:30:46;80.35;;;63.80;;
51296;SDS011;37380;45.186;9.792;2023-12-28T10:33:14;85.00;;;64.28;;
51296;SDS011;37380;45.186;9.792;2023-12-28T10:35:43;84.57;;;62.58;;
51296;SDS011;37380;45.186;9.792;2023-12-28T10:38:13;88.95;;;61.28;;
51296;SDS011;37380;45.186;9.792;2023-12-28T10:40:44;72.90;;;60.10;;
51296;SDS011;37380;45.186;9.792;2023-12-28T10:43:14;80.53;;;61.58;;
51296;SDS011;37380;45.186;9.792;2023-12-28T10:45:46;91.50;;;63.53;;
51296;SDS011;37380;45.186;9.792;2023-12-28T10:48:17;82.60;;;63.97;;
51296;SDS011;37380;45.186;9.792;2023-12-28T10:50:51;84.85;;;62.05;;
51296;SDS011;37380;45.186;9.792;2023-12-28T11:01:39;93.18;;;61.85;;
51296;SDS011;37380;45.186;9.792;2023-12-28T11:04:23;74.35;;;57.45;;
51296;SDS011;37380;45.186;9.792;2023-12-28T11:06:57;98.63;;;63.05;;
51296;SDS011;37380;45.186;9.792;2023-12-28T11:09:26;80.00;;;58.83;;
51296;SDS011;37380;45.186;9.792;2023-12-28T11:11:57;78.50;;;61.47;;
51296;SDS011;37380;45.186;9.792;2023-12-28T11:14:28;82.30;;;59.75;;
51296;SDS011;37380;45.186;9.792;2023-12-28T11:16:55;80.70;;;58.03;;
51296;SDS011;37380;45.186;9.792;2023-12-28T11:19:25;76.25;;;55.30;;
51296;SDS011;37380;45.186;9.792;2023-12-28T11:21:55;69.63;;;54.53;;
51296;SDS011;37380;45.186;9.792;2023-12-28T11:24:23;75.95;;;53.97;;
51296;SDS011;37380;45.186;9.792;2023-12-28T11:26:54;70.65;;;53.25;;
51296;SDS011;37380;45.186;9.792;2023-12-28T11:29:21;70.65;;;53.30;;
51296;SDS011;37380;45.186;9.792;2023-12-28T11:31:57;67.95;;;55.08;;
51296;SDS011;37380;45.186;9.792;2023-12-28T11:34:25;62.53;;;52.40;;
51296;SDS011;37380;45.186;9.792;2023-12-28T11:36:55;68.30;;;54.35;;
51296;SDS011;37380;45.186;9.792;2023-12-28T11:39:30;61.38;;;52.42;;
51296;SDS011;37380;45.186;9.792;2023-12-28T11:42:02;75.75;;;53.78;;
51296;SDS011;37380;45.186;9.792;2023-12-28T11:44:31;71.35;;;53.80;;
51296;SDS011;37380;45.186;9.792;2023-12-28T11:47:10;74.88;;;55.67;;
51296;SDS011;37380;45.186;9.792;2023-12-28T11:49:47;71.97;;;54.33;;
51296;SDS011;37380;45.186;9.792;2023-12-28T11:52:22;67.18;;;52.17;;
51296;SDS011;37380;45.186;9.792;2023-12-28T11:54:59;74.63;;;51.42;;
51296;SDS011;37380;45.186;9.792;2023-12-28T11:57:27;74.88;;;55.15;;
51296;SDS011;37380;45.186;9.792;2023-12-28T11:59:58;83.40;;;54.05;;
51296;SDS011;37380;45.186;9.792;2023-12-28T12:02:26;70.80;;;52.03;;
51296;SDS011;37380;45.186;9.792;2023-12-28T12:04:56;75.90;;;47.97;;
51296;SDS011;37380;45.186;9.792;2023-12-28T12:07:24;65.35;;;50.35;;
51296;SDS011;37380;45.186;9.792;2023-12-28T12:09:56;72.63;;;52.10;;
51296;SDS011;37380;45.186;9.792;2023-12-28T12:12:24;71.38;;;52.80;;
51296;SDS011;37380;45.186;9.792;2023-12-28T12:14:52;71.53;;;48.58;;
51296;SDS011;37380;45.186;9.792;2023-12-28T12:17:19;65.00;;;50.60;;
51296;SDS011;37380;45.186;9.792;2023-12-28T12:19:47;78.57;;;53.03;;
51296;SDS011;37380;45.186;9.792;2023-12-28T12:22:16;70.82;;;52.88;;
51296;SDS011;37380;45.186;9.792;2023-12-28T12:24:44;74.35;;;55.10;;
51296;SDS011;37380;45.186;9.792;2023-12-28T12:27:14;67.32;;;54.03;;
51296;SDS011;37380;45.186;9.792;2023-12-28T12:29:41;70.20;;;53.10;;
51296;SDS011;37380;45.186;9.792;2023-12-28T12:32:09;65.90;;;50.03;;
51296;SDS011;37380;45.186;9.792;2023-12-28T12:34:37;81.70;;;50.67;;
51296;SDS011;37380;45.186;9.792;2023-12-28T12:37:06;71.03;;;49.67;;
51296;SDS011;37380;45.186;9.792;2023-12-28T12:39:33;71.15;;;48.78;;
51296;SDS011;37380;45.186;9.792;2023-12-28T12:42:01;72.75;;;48.97;;
51296;SDS011;37380;45.186;9.792;2023-12-28T12:44:29;65.47;;;47.75;;
51296;SDS011;37380;45.186;9.792;2023-12-28T12:46:57;59.20;;;47.42;;
51296;SDS011;37380;45.186;9.792;2023-12-28T12:49:28;50.75;;;43.03;;
51296;SDS011;37380;45.186;9.792;2023-12-28T12:51:55;68.38;;;44.72;;
51296;SDS011;37380;45.186;9.792;2023-12-28T12:54:22;63.42;;;43.35;;
51296;SDS011;37380;45.186;9.792;2023-12-28T12:56:49;56.13;;;43.15;;
51296;SDS011;37380;45.186;9.792;2023-12-28T12:59:17;55.90;;;42.20;;
51296;SDS011;37380;45.186;9.792;2023-12-28T13:01:44;61.80;;;44.25;;
51296;SDS011;37380;45.186;9.792;2023-12-28T13:04:18;60.72;;;45.88;;
51296;SDS011;37380;45.186;9.792;2023-12-28T13:06:45;50.13;;;40.70;;
51296;SDS011;37380;45.186;9.792;2023-12-28T13:09:13;56.22;;;44.85;;
51296;SDS011;37380;45.186;9.792;2023-12-28T13:11:40;60.42;;;45.50;;
51296;SDS011;37380;45.186;9.792;2023-12-28T13:14:07;60.67;;;47.20;;
51296;SDS011;37380;45.186;9.792;2023-12-28T13:16:34;63.80;;;45.72;;
51296;SDS011;37380;45.186;9.792;2023-12-28T13:19:01;56.45;;;43.58;;
51296;SDS011;37380;45.186;9.792;2023-12-28T13:21:28;54.80;;;44.20;;
51296;SDS011;37380;45.186;9.792;2023-12-28T13:23:56;53.38;;;42.30;;
51296;SDS011;37380;45.186;9.792;2023-12-28T13:26:26;69.53;;;46.45;;
51296;SDS011;37380;45.186;9.792;2023-12-28T13:28:53;60.22;;;46.42;;
51296;SDS011;37380;45.186;9.792;2023-12-28T13:31:20;55.10;;;44.72;;
51296;SDS011;37380;45.186;9.792;2023-12-28T13:33:47;49.47;;;43.50;;
51296;SDS011;37380;45.186;9.792;2023-12-28T13:36:14;52.38;;;44.35;;
51296;SDS011;37380;45.186;9.792;2023-12-28T13:38:41;56.90;;;42.90;;
51296;SDS011;37380;45.186;9.792;2023-12-28T13:41:08;62.55;;;45.92;;
51296;SDS011;37380;45.186;9.792;2023-12-28T13:43:35;53.03;;;43.78;;
51296;SDS011;37380;45.186;9.792;2023-12-28T13:46:03;57.25;;;44.85;;
51296;SDS011;37380;45.186;9.792;2023-12-28T13:48:30;51.80;;;43.80;;
51296;SDS011;37380;45.186;9.792;2023-12-28T13:50:57;55.30;;;39.20;;
51296;SDS011;37380;45.186;9.792;2023-12-28T13:53:24;47.60;;;40.03;;
51296;SDS011;37380;45.186;9.792;2023-12-28T13:55:52;52.00;;;39.25;;
51296;SDS011;37380;45.186;9.792;2023-12-28T13:58:19;47.63;;;39.05;;
51296;SDS011;37380;45.186;9.792;2023-12-28T14:00:46;55.55;;;39.97;;
51296;SDS011;37380;45.186;9.792;2023-12-28T14:03:13;46.25;;;38.58;;
51296;SDS011;37380;45.186;9.792;2023-12-28T14:05:40;56.45;;;39.42;;
51296;SDS011;37380;45.186;9.792;2023-12-28T14:08:09;54.15;;;40.90;;
51296;SDS011;37380;45.186;9.792;2023-12-28T14:10:36;54.67;;;40.15;;
51296;SDS011;37380;45.186;9.792;2023-12-28T14:13:05;48.03;;;35.42;;
51296;SDS011;37380;45.186;9.792;2023-12-28T14:15:32;39.35;;;34.67;;
51296;SDS011;37380;45.186;9.792;2023-12-28T14:17:59;42.75;;;37.38;;
51296;SDS011;37380;45.186;9.792;2023-12-28T14:20:27;40.83;;;35.45;;
51296;SDS011;37380;45.186;9.792;2023-12-28T14:22:55;48.42;;;35.20;;
51296;SDS011;37380;45.186;9.792;2023-12-28T14:25:23;43.75;;;35.05;;
51296;SDS011;37380;45.186;9.792;2023-12-28T14:27:50;51.95;;;34.08;;
51296;SDS011;37380;45.186;9.792;2023-12-28T14:30:18;43.45;;;34.90;;
51296;SDS011;37380;45.186;9.792;2023-12-28T14:32:46;41.28;;;33.40;;
51296;SDS011;37380;45.186;9.792;2023-12-28T14:35:14;47.03;;;36.95;;
51296;SDS011;37380;45.186;9.792;2023-12-28T14:37:46;46.22;;;34.30;;
51296;SDS011;37380;45.186;9.792;2023-12-28T14:40:13;40.38;;;34.42;;